createdAt,value
2022-09-09T00:02:21.673Z,99598.19
2022-09-09T00:06:29.731Z,99601.88
2022-09-09T00:10:36.176Z,99592.13
2022-09-09T00:14:49.085Z,99601.09
2022-09-09T00:19:02.243Z,99601.16
2022-09-09T00:23:14.143Z,99597.72
2022-09-09T00:27:25.191Z,99602.22
2022-09-09T00:31:32.066Z,99587.22
2022-09-09T00:35:39.395Z,99591.72
2022-09-09T00:39:48.065Z,99586.41
2022-09-09T00:44:00.034Z,99584.66
2022-09-09T00:48:09.044Z,99590.97
2022-09-09T00:52:42.044Z,99598.16
2022-09-09T00:56:55.634Z,99600.94
2022-09-09T01:01:07.650Z,99604.50
2022-09-09T01:05:19.652Z,99608.94
2022-09-09T01:09:28.184Z,99608.06
2022-09-09T01:13:34.803Z,99618.69
2022-09-09T01:17:52.596Z,99623.19
2022-09-09T01:22:10.747Z,99620.63
2022-09-09T01:26:28.995Z,99616.31
2022-09-09T01:30:36.265Z,99616.34
2022-09-09T01:34:42.423Z,99624.38
2022-09-09T01:38:45.463Z,99629.78
2022-09-09T01:42:50.479Z,99630.75
2022-09-09T01:46:54.237Z,99634.31
2022-09-09T01:50:58.675Z,99642.31
2022-09-09T01:55:02.547Z,99625.53
2022-09-09T01:59:26.827Z,99638.03
2022-09-09T02:03:35.795Z,99640.69
2022-09-09T02:08:02.347Z,99636.34
2022-09-09T02:12:16.508Z,99631.09
2022-09-09T02:16:32.559Z,99626.75
2022-09-09T02:20:39.089Z,99620.59
2022-09-09T02:24:43.175Z,99631.31
2022-09-09T02:29:00.652Z,99626.94
2022-09-09T02:33:11.591Z,99625.22
2022-09-09T02:37:26.143Z,99627.13
2022-09-09T02:41:34.662Z,99637.84
2022-09-09T02:45:44.661Z,99643.25
2022-09-09T02:50:04.288Z,99645.09
2022-09-09T02:54:15.545Z,99648.81
2022-09-09T02:58:20.589Z,99650.69
2022-09-09T03:02:33.137Z,99652.66
2022-09-09T03:06:42.589Z,99656.22
2022-09-09T03:10:55.598Z,99654.41
2022-09-09T03:15:00.534Z,99650.81
2022-09-09T03:19:04.013Z,99643.75
2022-09-09T03:23:13.579Z,99645.44
2022-09-09T03:27:20.509Z,99643.63
2022-09-09T03:31:23.696Z,99640.94
2022-09-09T03:35:27.865Z,99640.88
2022-09-09T03:39:33.403Z,99641.72
2022-09-09T03:43:37.509Z,99641.72
2022-09-09T03:47:41.280Z,99630.28
2022-09-09T03:51:44.443Z,99623.25
2022-09-09T03:55:55.573Z,99645.44
2022-09-09T04:00:02.098Z,99641.06
2022-09-09T04:04:09.925Z,99639.34
2022-09-09T04:08:13.538Z,99640.28
2022-09-09T04:12:18.939Z,99649.22
2022-09-09T04:16:22.338Z,99650.16
2022-09-09T04:20:26.134Z,99644.91
2022-09-09T04:24:30.208Z,99648.66
2022-09-09T04:28:38.318Z,99656.63
2022-09-09T04:32:47.179Z,99658.34
2022-09-09T04:36:52.892Z,99661.94
2022-09-09T04:40:55.983Z,99662.84
2022-09-09T04:45:00.774Z,99667.31
2022-09-09T04:49:10.917Z,99674.44
2022-09-09T04:53:18.692Z,99676.25
2022-09-09T04:57:22.074Z,99687.81
2022-09-09T05:01:28.092Z,99685.19
2022-09-09T05:05:37.858Z,99687.00
2022-09-09T05:09:40.959Z,99687.06
2022-09-09T05:13:44.031Z,99688.88
2022-09-09T05:17:49.000Z,99688.88
2022-09-09T05:21:52.401Z,99692.38
2022-09-09T05:26:00.975Z,99701.19
2022-09-09T05:30:06.658Z,99686.16
2022-09-09T05:34:12.786Z,99693.22
2022-09-09T05:38:15.972Z,99694.94
2022-09-09T05:42:29.453Z,99689.56
2022-09-09T05:46:33.153Z,99697.44
2022-09-09T05:50:38.369Z,99703.59
2022-09-09T05:54:42.634Z,99693.66
2022-09-09T05:58:47.935Z,99693.50
2022-09-09T06:02:54.665Z,99689.84
2022-09-09T06:07:00.198Z,99692.25
2022-09-09T06:11:05.819Z,99678.88
2022-09-09T06:15:10.994Z,99679.63
2022-09-09T06:19:15.468Z,99678.59
2022-09-09T06:23:21.411Z,99675.84
2022-09-09T06:27:24.568Z,99681.03
2022-09-09T06:31:31.528Z,99687.94
2022-09-09T06:35:38.775Z,99677.16
2022-09-09T06:39:43.343Z,99672.56
2022-09-09T06:43:46.940Z,99678.66
2022-09-09T06:47:50.333Z,99680.28
2022-09-09T06:51:54.151Z,99680.94
2022-09-09T06:55:59.798Z,99687.84
2022-09-09T07:00:04.331Z,99691.19
2022-09-09T07:04:09.058Z,99692.69
2022-09-09T07:08:13.675Z,99688.75
2022-09-09T07:12:18.098Z,99691.28
2022-09-09T07:16:32.350Z,99684.81
2022-09-09T07:20:36.614Z,99679.16
2022-09-09T07:24:39.800Z,99683.09
2022-09-09T07:28:45.246Z,99677.25
2022-09-09T07:32:48.595Z,99674.13
2022-09-09T07:36:51.885Z,99665.00
2022-09-09T07:40:56.458Z,99685.28
2022-09-09T07:45:01.025Z,99670.00
2022-09-09T07:49:05.016Z,99682.03
2022-09-09T07:53:10.869Z,99679.78
2022-09-09T07:57:14.390Z,99692.41
2022-09-09T08:01:21.140Z,99692.06
2022-09-09T08:05:24.597Z,99696.28
2022-09-09T08:09:30.044Z,99699.47
2022-09-09T08:13:46.004Z,99698.44
2022-09-09T08:17:50.606Z,99688.28
2022-09-09T08:21:53.769Z,99707.63
2022-09-09T08:25:58.099Z,99708.22
2022-09-09T08:30:01.362Z,99700.78
2022-09-09T08:34:09.863Z,99701.28
2022-09-09T08:38:15.416Z,99696.31
2022-09-09T08:42:30.323Z,99702.91
2022-09-09T08:46:44.398Z,99697.84
2022-09-09T08:50:53.091Z,99681.13
2022-09-09T08:55:19.876Z,99687.97
2022-09-09T08:59:22.974Z,99687.72
2022-09-09T09:03:36.245Z,99681.22
2022-09-09T09:07:56.243Z,99671.16
2022-09-09T09:12:10.612Z,99670.56
2022-09-09T09:16:21.829Z,99664.31
2022-09-09T09:20:45.159Z,99657.16
2022-09-09T09:24:55.060Z,99657.03
2022-09-09T09:29:01.714Z,99665.50
2022-09-09T09:33:11.019Z,99667.19
2022-09-09T09:37:20.563Z,99643.63
2022-09-09T09:41:37.207Z,99647.31
2022-09-09T09:45:55.388Z,99640.19
2022-09-09T09:50:19.980Z,99645.41
2022-09-09T09:54:30.884Z,99637.88
2022-09-09T09:58:52.442Z,99639.13
2022-09-09T10:03:02.587Z,99631.69
2022-09-09T10:07:13.392Z,99625.31
2022-09-09T10:11:32.541Z,99623.44
2022-09-09T10:15:49.143Z,99629.66
2022-09-09T10:20:12.812Z,99627.06
2022-09-09T10:24:33.283Z,99623.56
2022-09-09T10:28:56.622Z,99631.47
2022-09-09T10:37:32.890Z,99631.31
2022-09-09T10:41:53.617Z,99630.84
2022-09-09T10:46:06.256Z,99624.44
2022-09-09T10:50:57.101Z,99615.19
2022-09-09T10:55:02.373Z,99615.44
2022-09-09T10:59:13.055Z,99618.59
2022-09-09T11:03:24.419Z,99634.94
2022-09-09T11:07:40.422Z,99634.84
2022-09-09T11:11:51.971Z,99632.44
2022-09-09T11:16:01.996Z,99615.94
2022-09-09T11:20:08.591Z,99620.38
2022-09-09T11:24:16.194Z,99623.72
2022-09-09T11:28:35.093Z,99613.47
2022-09-09T11:33:22.291Z,99609.13
2022-09-09T11:37:56.552Z,99616.09
2022-09-09T11:42:14.978Z,99617.47
2022-09-09T11:46:20.103Z,99612.69
2022-09-09T11:50:35.522Z,99606.69
2022-09-09T11:54:50.091Z,99608.34
2022-09-09T11:59:00.406Z,99609.75
2022-09-09T12:03:03.581Z,99604.06
2022-09-09T12:07:25.504Z,99603.81
2022-09-09T12:11:31.661Z,99601.22
2022-09-09T12:15:36.573Z,99595.06
2022-09-09T12:19:39.711Z,99587.28
2022-09-09T12:23:52.264Z,99584.94
2022-09-09T12:28:07.618Z,99577.09
2022-09-09T12:32:15.261Z,99568.56
2022-09-09T12:36:21.649Z,99574.66
2022-09-09T12:40:26.752Z,99563.25
2022-09-09T12:44:30.310Z,99564.31
2022-09-09T12:48:38.694Z,99567.00
2022-09-09T12:52:41.901Z,99564.59
2022-09-09T12:56:49.211Z,99552.88
2022-09-09T13:00:53.785Z,99552.94
2022-09-09T13:05:15.651Z,99537.66
2022-09-09T13:09:18.734Z,99531.50
2022-09-09T13:13:24.850Z,99527.06
2022-09-09T13:17:30.080Z,99520.31
2022-09-09T13:21:36.259Z,99516.09
2022-09-09T13:25:43.755Z,99502.97
2022-09-09T13:29:56.756Z,99507.75
2022-09-09T13:33:59.763Z,99513.41
2022-09-09T13:38:11.534Z,99514.66
2022-09-09T13:42:26.425Z,99521.09
2022-09-09T13:46:38.288Z,99518.56
2022-09-09T13:50:42.564Z,99512.25
2022-09-09T13:54:50.103Z,99506.88
2022-09-09T13:58:53.086Z,99510.34
2022-09-09T14:02:56.974Z,99497.91
2022-09-09T14:07:00.571Z,99501.66
2022-09-09T14:11:05.472Z,99496.72
2022-09-09T14:15:11.369Z,99497.09
2022-09-09T14:19:14.553Z,99504.38
2022-09-09T14:23:18.274Z,99510.84
2022-09-09T14:27:22.790Z,99514.69
2022-09-09T14:31:26.815Z,99513.03
2022-09-09T14:35:29.953Z,99517.63
2022-09-09T14:39:33.126Z,99525.78
2022-09-09T14:43:37.517Z,99525.00
2022-09-09T14:47:40.537Z,99535.59
2022-09-09T14:51:44.028Z,99519.38
2022-09-09T14:55:47.775Z,99522.47
2022-09-09T14:59:52.348Z,99522.84
2022-09-09T15:03:57.061Z,99523.34
2022-09-09T15:08:00.654Z,99530.13
2022-09-09T15:12:04.008Z,99521.25
2022-09-09T15:16:10.002Z,99527.31
2022-09-09T15:20:13.053Z,99536.88
2022-09-09T15:24:17.879Z,99524.81
2022-09-09T15:28:21.099Z,99515.44
2022-09-09T15:32:25.538Z,99500.50
2022-09-09T15:36:30.701Z,99497.91
2022-09-09T15:40:34.325Z,99506.75
2022-09-09T15:44:43.915Z,99508.81
2022-09-09T15:48:52.315Z,99492.22
2022-09-09T15:52:57.482Z,99478.84
2022-09-09T15:57:02.433Z,99490.25
2022-09-09T16:01:06.378Z,99504.88
2022-09-09T16:05:11.616Z,99503.53
2022-09-09T16:09:14.811Z,99507.31
2022-09-09T16:13:18.140Z,99509.66
2022-09-09T16:17:21.586Z,99528.84
2022-09-09T16:21:30.126Z,99530.25
2022-09-09T16:25:33.475Z,99528.88
2022-09-09T16:29:37.206Z,99537.28
2022-09-09T16:33:40.310Z,99523.16
2022-09-09T16:37:45.030Z,99506.28
2022-09-09T16:41:49.846Z,99517.28
2022-09-09T16:45:53.044Z,99526.53
2022-09-09T16:49:56.616Z,99522.28
2022-09-09T16:54:03.527Z,99502.09
2022-09-09T16:58:06.616Z,99502.34
2022-09-09T17:02:10.533Z,99492.09
2022-09-09T17:06:15.740Z,99505.78
2022-09-09T17:10:20.387Z,99518.59
2022-09-09T17:14:24.829Z,99514.38
2022-09-09T17:18:30.011Z,99530.94
2022-09-09T17:22:33.747Z,99546.47
2022-09-09T17:26:39.217Z,99578.75
2022-09-09T17:30:42.644Z,99586.94
2022-09-09T17:34:46.971Z,99592.44
2022-09-09T17:38:50.648Z,99600.63
2022-09-09T17:42:55.658Z,99604.53
2022-09-09T17:46:58.739Z,99596.00
2022-09-09T17:51:02.029Z,99602.84
2022-09-09T17:55:05.987Z,99608.72
2022-09-09T17:59:13.332Z,99601.22
2022-09-09T18:03:16.414Z,99595.78
2022-09-09T18:07:20.028Z,99598.00
2022-09-09T18:11:25.901Z,99610.78
2022-09-09T18:15:48.828Z,99611.84
2022-09-09T18:19:53.000Z,99618.13
2022-09-09T18:23:55.939Z,99620.09
2022-09-09T18:27:59.120Z,99634.44
2022-09-09T18:32:04.148Z,99640.78
2022-09-09T18:36:09.326Z,99644.38
2022-09-09T18:40:12.402Z,99643.63
2022-09-09T18:44:17.791Z,99643.69
2022-09-09T18:48:22.330Z,99626.84
2022-09-09T18:52:25.901Z,99631.38
2022-09-09T18:56:30.684Z,99620.78
2022-09-09T19:00:33.975Z,99619.28
2022-09-09T19:04:39.019Z,99619.41
2022-09-09T19:08:44.137Z,99625.84
2022-09-09T19:12:47.174Z,99625.09
2022-09-09T19:16:50.743Z,99619.06
2022-09-09T19:20:55.199Z,99629.13
2022-09-09T19:24:59.223Z,99630.13
2022-09-09T19:29:03.195Z,99637.56
2022-09-09T19:33:06.790Z,99628.03
2022-09-09T19:37:14.080Z,99626.50
2022-09-09T19:41:23.240Z,99624.88
2022-09-09T19:45:27.587Z,99610.81
2022-09-09T19:49:32.144Z,99619.06
2022-09-09T19:53:40.528Z,99631.75
2022-09-09T19:57:43.735Z,99623.97
2022-09-09T20:01:47.038Z,99633.13
2022-09-09T20:05:50.526Z,99629.78
2022-09-09T20:09:54.879Z,99636.28
2022-09-09T20:13:58.520Z,99620.56
2022-09-09T20:18:01.776Z,99627.75
2022-09-09T20:22:05.507Z,99631.47
2022-09-09T20:26:12.884Z,99640.53
2022-09-09T20:30:16.002Z,99640.81
2022-09-09T20:34:22.233Z,99641.84
2022-09-09T20:38:33.942Z,99648.09
2022-09-09T20:42:38.660Z,99647.25
2022-09-09T20:46:43.939Z,99648.25
2022-09-09T20:50:47.259Z,99652.72
2022-09-09T20:54:51.411Z,99645.53
2022-09-09T20:58:56.307Z,99641.06
2022-09-09T21:03:00.006Z,99642.06
2022-09-09T21:07:04.371Z,99643.00
2022-09-09T21:11:08.034Z,99650.22
2022-09-09T21:15:13.104Z,99657.41
2022-09-09T21:19:16.284Z,99662.00
2022-09-09T21:23:19.655Z,99661.19
2022-09-09T21:27:23.434Z,99663.97
2022-09-09T21:31:28.645Z,99663.16
2022-09-09T21:35:36.359Z,99663.09
2022-09-09T21:39:39.578Z,99668.38
2022-09-09T21:43:44.504Z,99672.75
2022-09-09T21:47:49.446Z,99664.81
2022-09-09T21:51:52.646Z,99676.56
2022-09-09T21:56:01.930Z,99679.38
2022-09-09T22:00:08.904Z,99676.88
2022-09-09T22:04:17.087Z,99685.69
2022-09-09T22:08:20.539Z,99675.91
2022-09-09T22:12:23.701Z,99663.47
2022-09-09T22:16:26.815Z,99665.25
2022-09-09T22:20:34.362Z,99664.38
2022-09-09T22:24:38.435Z,99667.94
2022-09-09T22:28:41.466Z,99677.75
2022-09-09T22:32:44.669Z,99677.75
2022-09-09T22:36:49.990Z,99667.94
2022-09-09T22:40:53.545Z,99667.94
2022-09-09T22:44:56.537Z,99668.81
2022-09-09T22:48:59.674Z,99654.53
2022-09-09T22:53:05.534Z,99652.84
2022-09-09T22:57:09.545Z,99650.16
2022-09-09T23:01:15.644Z,99649.28
2022-09-09T23:05:20.069Z,99643.94
2022-09-09T23:09:24.432Z,99634.06
2022-09-09T23:13:30.899Z,99638.34
2022-09-09T23:17:34.264Z,99640.84
2022-09-09T23:21:38.557Z,99645.31
2022-09-09T23:25:42.856Z,99646.19
2022-09-09T23:29:45.884Z,99637.28
2022-09-09T23:33:49.794Z,99624.00
2022-09-09T23:37:53.521Z,99647.06
2022-09-09T23:42:01.424Z,99649.66
2022-09-09T23:46:07.386Z,99647.06
2022-09-09T23:50:11.145Z,99642.69
2022-09-09T23:54:14.335Z,99649.88
2022-09-09T23:58:18.887Z,99634.69
